Time;durP1;ratioP1;P1;durP2;ratioP2;P2;SDS_P1;SDS_P2;PMS_P1;PMS_P2;Temp;Humidity;BMP_temperature;BMP_pressure;BME280_temperature;BME280_humidity;BME280_pressure;Samples;Min_cycle;Max_cycle;Signal;HPM_P1;HPM_P2
2021/11/23 08:58:10;;;;;;;2.10;1.90;;;-2.20;99.90;;;;;;5100725;27;21424;-76
2021/11/23 09:00:37;;;;;;;1.90;1.80;;;-2.20;99.90;;;;;;5079721;28;20085;-75
2021/11/23 09:03:04;;;;;;;2.80;2.53;;;-2.10;99.90;;;;;;5079853;28;20039;-77
2021/11/23 09:05:33;;;;;;;2.90;2.70;;;-1.90;99.90;;;;;;5082539;28;20502;-75
2021/11/23 09:08:01;;;;;;;3.75;2.90;;;-1.70;99.90;;;;;;5078119;28;20512;-75
2021/11/23 09:10:29;;;;;;;5.25;2.67;;;-1.50;99.90;;;;;;5077655;28;20028;-76
2021/11/23 09:12:58;;;;;;;3.70;2.97;;;-1.50;99.90;;;;;;5091527;28;20040;-76
2021/11/23 09:15:24;;;;;;;3.25;2.95;;;-1.50;99.90;;;;;;5083481;28;20173;-74
2021/11/23 09:17:50;;;;;;;3.47;3.08;;;-1.40;99.90;;;;;;5063231;28;20032;-77
2021/11/23 09:20:19;;;;;;;3.30;2.90;;;-1.40;99.90;;;;;;5076915;28;20025;-75
2021/11/23 09:22:46;;;;;;;3.63;3.05;;;-1.20;99.90;;;;;;5080508;28;20432;-73
2021/11/23 09:25:14;;;;;;;4.13;3.60;;;-1.20;99.90;;;;;;5082798;28;20111;-74
2021/11/23 09:27:40;;;;;;;3.30;3.00;;;-1.10;99.90;;;;;;5082305;28;20525;-76
2021/11/23 09:30:09;;;;;;;8.23;5.53;;;-1.10;99.90;;;;;;5079316;28;20040;-75
2021/11/23 09:32:36;;;;;;;15.25;9.38;;;-1.00;99.90;;;;;;5081615;28;20066;-77
2021/11/23 09:35:02;;;;;;;7.00;5.32;;;-0.90;99.90;;;;;;5082254;28;20040;-77
2021/11/23 09:37:28;;;;;;;8.23;5.32;;;-0.80;99.90;;;;;;5083561;28;20127;-75
2021/11/23 09:39:54;;;;;;;5.20;3.85;;;-0.80;99.90;;;;;;5081536;28;20146;-76
2021/11/23 09:42:19;;;;;;;6.18;4.65;;;-0.80;99.90;;;;;;5080596;28;20024;-76
2021/11/23 09:44:46;;;;;;;5.78;4.35;;;-0.80;99.90;;;;;;5078896;28;20678;-74
2021/11/23 09:47:12;;;;;;;6.28;3.78;;;-0.70;99.90;;;;;;5081674;28;20032;-76
2021/11/23 09:49:39;;;;;;;4.28;3.63;;;-0.70;99.90;;;;;;5078406;28;20051;-79
2021/11/23 09:52:06;;;;;;;5.10;4.10;;;-0.60;99.90;;;;;;5091851;28;20137;-75
2021/11/23 09:54:32;;;;;;;5.38;3.90;;;-0.50;99.90;;;;;;5079549;28;20040;-75
2021/11/23 09:56:57;;;;;;;4.85;4.20;;;-0.40;99.90;;;;;;5079706;28;20089;-75
2021/11/23 09:59:23;;;;;;;5.63;4.32;;;-0.40;99.90;;;;;;5078489;28;20028;-75
2021/11/23 10:01:55;;;;;;;5.50;4.20;;;-0.20;99.90;;;;;;5082154;28;20024;-77
2021/11/23 10:04:26;;;;;;;6.13;4.72;;;0.00;99.90;;;;;;5078626;28;20371;-74
2021/11/23 10:06:59;;;;;;;6.13;4.43;;;0.10;99.90;;;;;;5079620;28;20025;-75
2021/11/23 10:09:36;;;;;;;4.63;3.92;;;0.20;99.90;;;;;;5061431;28;20032;-75
2021/11/23 10:12:24;;;;;;;5.47;4.50;;;0.20;99.90;;;;;;5066914;28;20028;-75
2021/11/23 10:15:18;;;;;;;4.78;4.22;;;0.30;99.90;;;;;;5049207;28;20720;-74
2021/11/23 10:17:48;;;;;;;5.85;4.03;;;0.40;99.90;;;;;;5065691;28;20151;-75
2021/11/23 10:20:34;;;;;;;5.68;4.53;;;0.50;99.90;;;;;;5066185;28;20060;-76
2021/11/23 10:23:10;;;;;;;4.25;3.58;;;0.60;99.90;;;;;;5066283;28;20031;-75
2021/11/23 10:25:35;;;;;;;;;;;0.60;99.90;;;;;;5068665;28;20463;-75
2021/11/23 10:28:02;;;;;;;6.03;4.05;;;0.60;99.90;;;;;;5066433;28;19919;-76
2021/11/23 10:30:27;;;;;;;4.90;3.97;;;0.60;99.90;;;;;;5067638;28;20029;-75
2021/11/23 10:32:53;;;;;;;4.13;3.70;;;0.60;99.90;;;;;;5070514;28;20059;-76
2021/11/23 10:35:23;;;;;;;3.95;3.28;;;0.60;99.90;;;;;;5070943;28;20078;-76
2021/11/23 10:37:50;;;;;;;5.82;4.45;;;0.70;99.90;;;;;;5071377;28;20077;-75
2021/11/23 10:40:22;;;;;;;5.70;4.25;;;0.80;99.90;;;;;;5067874;28;20017;-76
2021/11/23 10:42:56;;;;;;;6.65;5.00;;;0.90;99.90;;;;;;5071453;28;20020;-77
2021/11/23 10:45:22;;;;;;;6.70;5.47;;;1.00;99.90;;;;;;5071083;28;20112;-76
2021/11/23 10:47:49;;;;;;;6.18;4.90;;;1.00;99.90;;;;;;5070035;28;20310;-75
2021/11/23 10:50:18;;;;;;;7.70;4.63;;;0.90;99.90;;;;;;5064760;28;20101;-75
2021/11/23 10:52:47;;;;;;;5.65;4.85;;;1.10;99.90;;;;;;5070769;28;20558;-76
2021/11/23 10:55:29;;;;;;;7.65;5.10;;;1.10;99.90;;;;;;5070423;28;21270;-77
2021/11/23 10:57:57;;;;;;;6.05;4.30;;;1.10;99.90;;;;;;5069015;28;20033;-75
2021/11/23 11:00:24;;;;;;;5.65;4.25;;;1.10;99.90;;;;;;5067855;28;20028;-75
2021/11/23 11:02:54;;;;;;;6.72;4.63;;;1.10;99.90;;;;;;5065961;28;20020;-75
2021/11/23 11:05:21;;;;;;;6.28;4.40;;;1.10;99.90;;;;;;5065657;28;20033;-76
2021/11/23 11:07:47;;;;;;;4.68;3.85;;;1.30;99.90;;;;;;5070038;28;20421;-77
2021/11/23 11:10:14;;;;;;;6.05;4.75;;;1.30;99.90;;;;;;5068990;28;20040;-75
2021/11/23 11:12:40;;;;;;;6.28;4.75;;;1.40;99.90;;;;;;5071240;28;20774;-75
2021/11/23 11:15:11;;;;;;;5.40;4.13;;;1.40;99.90;;;;;;5070489;28;20459;-76
2021/11/23 11:17:38;;;;;;;6.35;4.93;;;1.40;99.90;;;;;;5065180;28;20028;-76
2021/11/23 11:20:06;;;;;;;5.20;4.22;;;1.60;99.90;;;;;;5063882;28;20040;-76
2021/11/23 11:22:32;;;;;;;6.07;4.00;;;1.60;99.90;;;;;;5102647;28;20036;-75
2021/11/23 11:25:19;;;;;;;6.07;4.13;;;1.60;99.90;;;;;;5068788;28;20029;-75
2021/11/23 11:27:47;;;;;;;5.40;3.70;;;1.70;99.90;;;;;;5069092;28;20072;-76
2021/11/23 11:30:32;;;;;;;7.13;5.07;;;1.80;99.90;;;;;;5069644;28;20049;-75
2021/11/23 11:33:01;;;;;;;7.40;4.80;;;1.80;99.90;;;;;;5067607;28;20031;-75
2021/11/23 11:35:29;;;;;;;4.25;3.65;;;1.80;99.90;;;;;;5069057;28;20519;-75
2021/11/23 11:37:58;;;;;;;5.07;4.22;;;1.80;99.90;;;;;;5067610;28;20472;-76
2021/11/23 11:40:42;;;;;;;5.88;4.22;;;1.80;99.90;;;;;;5063766;28;20475;-75
2021/11/23 11:43:10;;;;;;;6.03;4.32;;;1.90;99.90;;;;;;5064883;28;20025;-75
2021/11/23 11:45:49;;;;;;;7.60;4.72;;;2.00;99.90;;;;;;5069058;28;20023;-75
2021/11/23 11:48:33;;;;;;;6.60;4.28;;;2.00;99.90;;;;;;5070188;28;20021;-75
2021/11/23 11:51:26;;;;;;;4.97;3.90;;;2.10;99.90;;;;;;5062101;28;20033;-76
2021/11/23 11:53:54;;;;;;;7.20;4.72;;;2.10;99.90;;;;;;5069473;28;21370;-75
2021/11/23 11:56:35;;;;;;;6.60;4.63;;;2.20;99.90;;;;;;5067596;28;20033;-76
2021/11/23 11:59:04;;;;;;;4.97;3.78;;;2.20;99.90;;;;;;5067273;28;20124;-75
2021/11/23 12:01:33;;;;;;;6.03;4.18;;;2.30;99.90;;;;;;5062279;28;20029;-75
2021/11/23 12:04:14;;;;;;;5.35;3.72;;;2.30;99.90;;;;;;5082800;28;20020;-75
2021/11/23 12:07:28;;;;;;;5.65;3.90;;;2.30;99.90;;;;;;5063798;28;20033;-76
2021/11/23 12:09:49;;;;;;;4.85;4.05;;;2.40;99.90;;;;;;5065579;28;20111;-75
2021/11/23 12:12:14;;;;;;;5.60;3.97;;;2.50;99.90;;;;;;5067675;28;20482;-75
2021/11/23 12:14:53;;;;;;;6.57;3.85;;;2.60;99.90;;;;;;5069296;28;20028;-76
2021/11/23 12:17:44;;;;;;;5.55;3.50;;;2.70;99.90;;;;;;5067032;28;20025;-76
2021/11/23 12:20:32;;;;;;;6.43;4.10;;;2.70;99.90;;;;;;5063962;28;20103;-75
2021/11/23 12:23:20;;;;;;;3.60;3.10;;;2.80;99.90;;;;;;5063592;28;20025;-75
2021/11/23 12:25:58;;;;;;;4.93;3.15;;;2.80;99.90;;;;;;5064595;28;20044;-75
2021/11/23 12:28:25;;;;;;;4.18;3.00;;;2.80;99.90;;;;;;5063690;28;20029;-75
2021/11/23 12:30:52;;;;;;;4.00;2.75;;;2.70;99.90;;;;;;5061699;28;20021;-76
2021/11/23 12:33:19;;;;;;;4.38;2.47;;;2.60;99.90;;;;;;5067490;28;20025;-75
2021/11/23 12:35:45;;;;;;;3.88;2.67;;;2.60;99.90;;;;;;5068969;28;20032;-75
2021/11/23 12:38:22;;;;;;;3.35;2.67;;;2.60;99.90;;;;;;5065431;28;21625;-76
2021/11/23 12:40:50;;;;;;;3.55;2.70;;;2.60;99.90;;;;;;5065306;28;20089;-75
2021/11/23 12:43:16;;;;;;;3.90;3.17;;;2.60;99.90;;;;;;5069243;28;20501;-75
2021/11/23 12:45:46;;;;;;;4.40;2.80;;;2.60;99.90;;;;;;5067251;28;20381;-75
2021/11/23 12:48:28;;;;;;;3.38;2.60;;;2.50;99.90;;;;;;5067057;28;20036;-76
2021/11/23 12:50:55;;;;;;;4.18;2.67;;;2.60;99.90;;;;;;5057284;28;20053;-77
2021/11/23 12:53:23;;;;;;;5.00;3.85;;;2.50;99.90;;;;;;5068186;28;20039;-76
2021/11/23 12:55:55;;;;;;;4.55;3.03;;;2.60;99.90;;;;;;5067038;28;20672;-75
2021/11/23 12:58:33;;;;;;;4.43;3.05;;;2.60;99.90;;;;;;5060827;28;20051;-75
2021/11/23 13:01:02;;;;;;;6.20;4.00;;;2.60;99.90;;;;;;5065072;28;20397;-75
2021/11/23 13:03:28;;;;;;;6.57;4.68;;;2.60;99.90;;;;;;5065701;28;20411;-75
2021/11/23 13:05:54;;;;;;;4.97;3.35;;;2.70;99.90;;;;;;5067499;28;20035;-77
2021/11/23 13:08:20;;;;;;;5.93;3.08;;;2.70;99.90;;;;;;5068957;28;20060;-75
2021/11/23 13:10:49;;;;;;;3.25;2.95;;;2.70;99.90;;;;;;5067587;28;20090;-76
2021/11/23 13:13:24;;;;;;;5.80;3.38;;;2.80;99.90;;;;;;5067432;28;20025;-75
2021/11/23 13:15:52;;;;;;;5.60;3.50;;;2.80;99.90;;;;;;5067319;28;20059;-75
2021/11/23 13:18:21;;;;;;;5.35;4.07;;;2.80;99.90;;;;;;5096232;28;21052;-75
2021/11/23 13:20:54;;;;;;;4.32;3.70;;;2.90;99.90;;;;;;5067839;28;20024;-76
2021/11/23 13:23:32;;;;;;;5.50;2.80;;;2.90;99.90;;;;;;5064084;28;20099;-76
2021/11/23 13:26:11;;;;;;;5.00;3.15;;;2.90;99.90;;;;;;5068766;28;20021;-75
2021/11/23 13:28:42;;;;;;;3.70;2.92;;;2.80;99.90;;;;;;5067709;28;20398;-76
2021/11/23 13:31:11;;;;;;;4.40;2.92;;;2.80;99.90;;;;;;5067981;28;20033;-75
2021/11/23 13:33:43;;;;;;;4.07;2.78;;;2.70;99.90;;;;;;5065832;28;20037;-75
2021/11/23 13:36:11;;;;;;;3.80;2.50;;;2.70;99.90;;;;;;5068908;28;20039;-76
2021/11/23 13:38:39;;;;;;;4.93;2.40;;;2.60;99.90;;;;;;5066885;28;20037;-76
2021/11/23 13:41:22;;;;;;;3.92;2.50;;;2.60;99.90;;;;;;5068866;28;20360;-75
2021/11/23 13:43:52;;;;;;;3.97;2.70;;;2.50;99.90;;;;;;5067275;28;20108;-75
2021/11/23 13:46:18;;;;;;;5.38;2.72;;;2.50;99.90;;;;;;5068850;28;20450;-75
2021/11/23 13:49:01;;;;;;;3.80;2.58;;;2.60;99.90;;;;;;5072718;28;20052;-75
2021/11/23 13:51:28;;;;;;;3.15;2.30;;;2.50;99.90;;;;;;5069852;28;20036;-76
2021/11/23 13:53:59;;;;;;;3.85;2.50;;;2.40;99.90;;;;;;5070016;28;20028;-75
2021/11/23 13:56:31;;;;;;;3.35;2.20;;;2.40;99.90;;;;;;5070205;28;20055;-76
2021/11/23 13:59:00;;;;;;;3.20;2.50;;;2.40;99.90;;;;;;5068448;28;20024;-75
2021/11/23 14:01:35;;;;;;;2.95;2.20;;;2.30;99.90;;;;;;5066988;28;20034;-76
2021/11/23 14:04:20;;;;;;;3.33;2.05;;;2.30;99.90;;;;;;5065533;28;20029;-75
2021/11/23 14:07:07;;;;;;;5.93;2.70;;;2.30;99.90;;;;;;5064732;28;20025;-75
2021/11/23 14:09:49;;;;;;;2.67;2.40;;;2.30;99.90;;;;;;5062262;28;20025;-77
2021/11/23 14:12:21;;;;;;;3.05;2.15;;;2.30;99.90;;;;;;5068112;28;20078;-77
2021/11/23 14:15:09;;;;;;;3.83;2.38;;;2.20;99.90;;;;;;5096463;28;20071;-78
2021/11/23 14:17:57;;;;;;;3.08;2.17;;;2.20;99.90;;;;;;5067432;28;20032;-75
2021/11/23 14:20:25;;;;;;;3.63;2.72;;;2.20;99.90;;;;;;5059954;28;20039;-75
2021/11/23 14:22:51;;;;;;;3.13;2.45;;;2.20;99.90;;;;;;5064931;28;20490;-76
2021/11/23 14:25:22;;;;;;;3.95;2.72;;;2.10;99.90;;;;;;5066684;28;20050;-76
2021/11/23 14:27:57;;;;;;;4.45;2.78;;;2.10;99.90;;;;;;5068166;28;20076;-76
2021/11/23 14:30:24;;;;;;;3.00;2.17;;;2.10;99.90;;;;;;5061349;28;20031;-75
2021/11/23 14:32:50;;;;;;;3.75;2.65;;;2.10;99.90;;;;;;5068067;28;20036;-75
2021/11/23 14:35:16;;;;;;;4.75;2.40;;;2.00;99.90;;;;;;5068444;28;20370;-75
2021/11/23 14:37:42;;;;;;;3.70;2.50;;;2.00;99.90;;;;;;5067193;28;20028;-76
2021/11/23 14:40:09;;;;;;;2.72;2.00;;;2.00;99.90;;;;;;5065664;28;20037;-75
2021/11/23 14:42:35;;;;;;;3.00;2.30;;;2.00;99.90;;;;;;5067927;28;20016;-75
2021/11/23 14:45:01;;;;;;;4.20;2.20;;;2.00;99.90;;;;;;5067703;28;20024;-75
2021/11/23 14:47:26;;;;;;;4.70;2.50;;;1.90;99.90;;;;;;5069613;28;20035;-76
2021/11/23 14:49:52;;;;;;;3.20;2.17;;;1.90;99.90;;;;;;5067840;28;20032;-76
2021/11/23 14:52:18;;;;;;;3.05;2.28;;;1.90;99.90;;;;;;5069317;28;20115;-75
2021/11/23 14:54:44;;;;;;;2.85;2.45;;;1.90;99.90;;;;;;5069472;28;20029;-76
2021/11/23 14:57:10;;;;;;;2.38;1.95;;;1.90;99.90;;;;;;5070575;28;20064;-76
2021/11/23 14:59:36;;;;;;;2.95;2.10;;;1.90;99.90;;;;;;5068978;28;20090;-75
2021/11/23 15:02:02;;;;;;;2.97;2.50;;;1.90;99.90;;;;;;5069950;28;20029;-75
2021/11/23 15:04:28;;;;;;;2.80;2.30;;;2.00;99.90;;;;;;5068622;28;20410;-76
2021/11/23 15:06:53;;;;;;;2.97;2.28;;;2.00;99.90;;;;;;5070454;28;20029;-76
2021/11/23 15:09:21;;;;;;;2.80;2.10;;;2.10;99.90;;;;;;5068090;28;20506;-76
2021/11/23 15:11:47;;;;;;;3.15;2.08;;;2.10;99.90;;;;;;5068684;28;20056;-76
2021/11/23 15:14:13;;;;;;;2.70;2.20;;;2.10;99.90;;;;;;5070904;28;20123;-75
2021/11/23 15:16:39;;;;;;;2.22;1.48;;;2.10;99.90;;;;;;5070327;28;20470;-75
2021/11/23 15:19:05;;;;;;;3.78;1.98;;;2.10;99.90;;;;;;5068208;28;20043;-77
2021/11/23 15:21:32;;;;;;;3.38;2.30;;;2.10;99.90;;;;;;5070903;28;20031;-75
2021/11/23 15:23:58;;;;;;;1.85;1.67;;;2.10;99.90;;;;;;5069914;28;20031;-75
2021/11/23 15:26:24;;;;;;;1.83;1.48;;;2.10;99.90;;;;;;5070311;28;20025;-75
2021/11/23 15:28:49;;;;;;;2.50;1.73;;;2.10;99.90;;;;;;5069567;28;20029;-75
2021/11/23 15:31:15;;;;;;;1.92;1.70;;;2.10;99.90;;;;;;5067010;28;20028;-75
2021/11/23 15:33:41;;;;;;;3.22;1.60;;;2.10;99.90;;;;;;5070505;28;20029;-75
2021/11/23 15:36:07;;;;;;;1.90;1.70;;;2.10;99.90;;;;;;5068670;28;20387;-75
2021/11/23 15:38:34;;;;;;;1.90;1.52;;;2.10;99.90;;;;;;5069591;28;20029;-76
2021/11/23 15:41:00;;;;;;;2.85;1.90;;;2.10;99.90;;;;;;5067804;28;20039;-75
2021/11/23 15:43:27;;;;;;;3.60;1.90;;;2.10;99.90;;;;;;5070531;28;20417;-75
2021/11/23 15:45:53;;;;;;;3.15;2.17;;;2.10;99.90;;;;;;5070379;28;20028;-75
2021/11/23 15:48:19;;;;;;;5.03;2.30;;;2.10;99.90;;;;;;5070256;28;20025;-75
2021/11/23 15:50:44;;;;;;;2.60;2.03;;;2.20;99.90;;;;;;5068519;28;20025;-75
2021/11/23 15:53:12;;;;;;;3.50;2.53;;;2.20;99.90;;;;;;5069469;28;20068;-75
2021/11/23 15:55:40;;;;;;;3.92;2.40;;;2.20;99.90;;;;;;5064736;28;20107;-75
2021/11/23 15:58:06;;;;;;;3.70;2.00;;;2.30;99.90;;;;;;5067325;28;20032;-77
2021/11/23 16:00:32;;;;;;;3.35;2.00;;;2.30;99.90;;;;;;5065483;28;20391;-76
2021/11/23 16:02:58;;;;;;;2.33;2.10;;;2.40;99.90;;;;;;5068471;28;20021;-75
2021/11/23 16:05:24;;;;;;;4.43;2.38;;;2.60;99.90;;;;;;5068740;28;20059;-75
2021/11/23 16:07:50;;;;;;;2.45;1.88;;;2.60;99.90;;;;;;5068798;28;20020;-75
2021/11/23 16:10:15;;;;;;;3.45;2.00;;;2.70;99.90;;;;;;5064738;28;20086;-75
2021/11/23 16:12:41;;;;;;;3.00;1.90;;;2.60;99.90;;;;;;5066987;28;20047;-76
2021/11/23 16:15:08;;;;;;;2.10;1.75;;;2.60;99.90;;;;;;5068973;28;20029;-75
2021/11/23 16:17:36;;;;;;;2.58;1.92;;;2.50;99.90;;;;;;5068564;28;20028;-75
2021/11/23 16:20:04;;;;;;;2.92;1.90;;;2.50;99.90;;;;;;5067232;28;20041;-76
2021/11/23 16:22:30;;;;;;;2.20;1.40;;;2.50;99.90;;;;;;5063090;28;20028;-76
2021/11/23 16:24:56;;;;;;;3.08;1.83;;;2.50;99.90;;;;;;5069633;28;20028;-75
2021/11/23 16:27:23;;;;;;;2.47;1.80;;;2.50;99.90;;;;;;5064065;28;20045;-75
2021/11/23 16:29:53;;;;;;;1.52;1.40;;;2.60;99.90;;;;;;5065752;28;20033;-75
2021/11/23 16:32:19;;;;;;;1.98;1.77;;;2.70;99.90;;;;;;5065064;28;20513;-75
2021/11/23 16:34:47;;;;;;;2.40;1.60;;;2.60;99.90;;;;;;5069227;28;20025;-75
2021/11/23 16:37:15;;;;;;;2.08;1.70;;;2.60;99.90;;;;;;5064856;28;20040;-75
2021/11/23 16:39:41;;;;;;;2.72;1.73;;;2.60;99.90;;;;;;5066955;28;20055;-75
2021/11/23 16:42:06;;;;;;;2.60;1.80;;;2.50;99.90;;;;;;5066484;28;20180;-75
2021/11/23 16:44:32;;;;;;;3.22;1.77;;;2.60;99.90;;;;;;5064918;28;20457;-76
2021/11/23 16:46:58;;;;;;;2.35;1.70;;;2.50;99.90;;;;;;5066745;28;20033;-74
2021/11/23 16:49:24;;;;;;;2.95;1.70;;;2.50;99.90;;;;;;5064457;28;20029;-75
2021/11/23 16:51:50;;;;;;;1.73;1.33;;;2.50;99.90;;;;;;5067795;28;20032;-74
2021/11/23 16:54:16;;;;;;;2.75;1.70;;;2.50;99.90;;;;;;5068776;28;20090;-76
2021/11/23 16:56:42;;;;;;;1.98;1.50;;;2.50;99.90;;;;;;5067737;28;20491;-75
2021/11/23 16:59:09;;;;;;;1.30;1.15;;;2.50;99.90;;;;;;5066115;28;20033;-75
2021/11/23 17:01:35;;;;;;;2.17;1.10;;;2.50;99.90;;;;;;5067396;28;20627;-74
2021/11/23 17:04:00;;;;;;;1.52;1.10;;;2.50;99.90;;;;;;5066136;28;20040;-75
2021/11/23 17:06:27;;;;;;;2.30;1.10;;;2.50;99.90;;;;;;5067159;28;20037;-75
2021/11/23 17:08:53;;;;;;;2.70;1.20;;;2.50;99.90;;;;;;5065127;28;20409;-74
2021/11/23 17:11:20;;;;;;;1.55;1.15;;;2.40;99.90;;;;;;5067423;28;20029;-75
2021/11/23 17:13:46;;;;;;;2.13;1.40;;;2.50;99.90;;;;;;5069061;28;20033;-75
2021/11/23 17:16:12;;;;;;;1.73;1.10;;;2.40;99.90;;;;;;5064794;28;20040;-75
2021/11/23 17:18:38;;;;;;;2.08;1.17;;;2.40;99.90;;;;;;5065752;28;20032;-75
2021/11/23 17:21:03;;;;;;;1.33;1.00;;;2.40;99.90;;;;;;5070951;28;20479;-75
2021/11/23 17:23:30;;;;;;;2.55;1.73;;;2.40;99.90;;;;;;5072878;28;20435;-75
2021/11/23 17:25:56;;;;;;;1.90;1.60;;;2.50;99.90;;;;;;5071857;28;20028;-76
2021/11/23 17:28:22;;;;;;;3.40;1.60;;;2.60;99.90;;;;;;5070938;28;20353;-74
2021/11/23 17:30:48;;;;;;;1.85;1.65;;;2.60;99.90;;;;;;5067920;28;20108;-75
2021/11/23 17:33:15;;;;;;;1.90;1.70;;;2.50;99.90;;;;;;5071389;28;20135;-75
2021/11/23 17:35:41;;;;;;;13.70;7.45;;;2.50;99.90;;;;;;5070749;28;20089;-76
2021/11/23 17:38:06;;;;;;;48.33;17.20;;;2.60;99.90;;;;;;5071143;28;20123;-74
2021/11/23 17:40:34;;;;;;;15.82;8.10;;;2.60;99.90;;;;;;5070732;28;20119;-75
2021/11/23 17:43:01;;;;;;;34.35;14.38;;;2.80;99.90;;;;;;5075653;28;20035;-74
2021/11/23 17:45:26;;;;;;;10.18;5.95;;;2.80;99.90;;;;;;5071836;28;20033;-75
2021/11/23 17:47:52;;;;;;;6.32;3.85;;;2.90;99.90;;;;;;5067697;28;20189;-76
2021/11/23 17:50:22;;;;;;;7.40;4.85;;;2.90;99.90;;;;;;5069240;28;20069;-76
2021/11/23 17:52:50;;;;;;;9.48;5.53;;;2.90;99.90;;;;;;5070391;28;20043;-76
2021/11/23 17:55:18;;;;;;;46.28;21.40;;;2.90;99.90;;;;;;5070866;28;20036;-76
2021/11/23 17:57:45;;;;;;;45.35;22.52;;;2.90;99.90;;;;;;5062435;28;20066;-77
2021/11/23 18:00:16;;;;;;;38.90;19.08;;;2.90;99.90;;;;;;5062489;28;20029;-77
2021/11/23 18:02:42;;;;;;;33.88;15.70;;;2.90;99.90;;;;;;5067813;28;20029;-76
2021/11/23 18:05:08;;;;;;;23.02;11.65;;;2.90;99.90;;;;;;5068747;28;20048;-76
2021/11/23 18:07:34;;;;;;;21.52;10.25;;;2.80;99.90;;;;;;5067645;28;20852;-76
2021/11/23 18:10:01;;;;;;;16.92;7.75;;;2.80;99.90;;;;;;5069297;28;20078;-77
2021/11/23 18:12:27;;;;;;;9.23;5.20;;;2.80;99.90;;;;;;5071513;28;20035;-76
2021/11/23 18:14:53;;;;;;;4.35;3.00;;;2.80;99.90;;;;;;5069416;28;20090;-76
2021/11/23 18:17:19;;;;;;;6.05;2.47;;;2.90;99.90;;;;;;5067160;28;20025;-76
2021/11/23 18:19:46;;;;;;;4.35;2.47;;;2.90;99.90;;;;;;5068032;28;20029;-77
2021/11/23 18:22:12;;;;;;;4.60;2.33;;;2.80;99.90;;;;;;5061624;28;20029;-77
2021/11/23 18:24:40;;;;;;;2.20;2.00;;;2.80;99.90;;;;;;5067360;28;20016;-76
2021/11/23 18:27:07;;;;;;;3.30;2.30;;;2.80;99.90;;;;;;5070251;28;20045;-77
2021/11/23 18:29:38;;;;;;;4.18;2.47;;;2.80;99.90;;;;;;5067197;28;20024;-76
2021/11/23 18:32:05;;;;;;;4.07;2.40;;;2.90;99.90;;;;;;5066989;28;20051;-76
2021/11/23 18:34:34;;;;;;;2.53;2.33;;;2.90;99.90;;;;;;5067639;28;20495;-77
2021/11/23 18:37:01;;;;;;;3.78;2.35;;;2.90;99.90;;;;;;5066254;28;20176;-77
2021/11/23 18:39:28;;;;;;;4.60;2.75;;;2.90;99.90;;;;;;5066852;28;20033;-76
2021/11/23 18:41:55;;;;;;;2.63;2.08;;;2.80;99.90;;;;;;5065472;28;20100;-77
2021/11/23 18:44:22;;;;;;;5.65;2.50;;;2.80;99.90;;;;;;5070563;28;20482;-76
2021/11/23 18:46:48;;;;;;;2.65;2.10;;;2.80;99.90;;;;;;5069107;28;20499;-77
2021/11/23 18:49:14;;;;;;;1.65;1.23;;;2.70;99.90;;;;;;5069670;28;20489;-77
2021/11/23 18:51:41;;;;;;;2.75;1.40;;;2.70;99.90;;;;;;5070590;28;20078;-78
2021/11/23 18:54:08;;;;;;;1.27;0.90;;;2.70;99.90;;;;;;5064538;28;20094;-77
2021/11/23 18:56:33;;;;;;;1.23;1.10;;;2.60;99.90;;;;;;5068677;28;20059;-78
2021/11/23 18:59:00;;;;;;;3.58;1.30;;;2.60;99.90;;;;;;5063396;28;20521;-77
2021/11/23 19:01:26;;;;;;;1.55;1.08;;;2.60;99.90;;;;;;5069764;28;20108;-77
2021/11/23 19:03:51;;;;;;;1.30;1.00;;;2.60;99.90;;;;;;5071029;28;20032;-77
2021/11/23 19:06:18;;;;;;;1.83;1.30;;;2.60;99.90;;;;;;5070494;28;20024;-76
2021/11/23 19:08:44;;;;;;;2.33;1.42;;;2.60;99.90;;;;;;5058251;28;20033;-77
2021/11/23 19:11:10;;;;;;;1.92;1.60;;;2.70;99.90;;;;;;5066146;28;20077;-77
2021/11/23 19:13:36;;;;;;;1.88;1.48;;;2.80;99.90;;;;;;5058361;28;20123;-78
2021/11/23 19:16:05;;;;;;;3.20;1.42;;;2.90;99.90;;;;;;5093673;28;20040;-77
2021/11/23 19:18:33;;;;;;;2.40;1.70;;;2.80;99.90;;;;;;5056894;28;20028;-77
2021/11/23 19:20:59;;;;;;;2.95;1.67;;;2.80;99.90;;;;;;5066078;28;20036;-77
2021/11/23 19:23:26;;;;;;;2.42;1.40;;;2.80;99.90;;;;;;5066329;28;20036;-78
2021/11/23 19:25:53;;;;;;;2.15;1.80;;;2.70;99.90;;;;;;5063600;28;20058;-79
2021/11/23 19:28:19;;;;;;;2.13;1.80;;;2.60;99.90;;;;;;5064190;28;20098;-79
2021/11/23 19:30:45;;;;;;;2.75;1.58;;;2.60;99.90;;;;;;5082116;28;20176;-80
2021/11/23 19:33:11;;;;;;;2.22;1.45;;;2.60;99.90;;;;;;5060007;28;20124;-79
2021/11/23 19:35:37;;;;;;;2.70;1.70;;;2.50;99.90;;;;;;5066071;28;20032;-79
2021/11/23 19:38:04;;;;;;;3.15;1.63;;;2.50;99.90;;;;;;5068215;28;20044;-79
2021/11/23 19:40:32;;;;;;;1.65;1.33;;;2.40;99.90;;;;;;5066617;28;20029;-78
2021/11/23 19:43:00;;;;;;;3.58;1.58;;;2.40;99.90;;;;;;5067351;28;20422;-79
2021/11/23 19:45:27;;;;;;;1.73;1.30;;;2.40;99.90;;;;;;5066492;28;20086;-79
2021/11/23 19:47:54;;;;;;;1.52;1.33;;;2.40;99.90;;;;;;5064850;28;20029;-78
2021/11/23 19:50:22;;;;;;;3.67;1.67;;;2.40;99.90;;;;;;5048094;28;20376;-80
2021/11/23 19:52:49;;;;;;;2.53;1.58;;;2.40;99.90;;;;;;5101494;28;20031;-79
2021/11/23 19:55:16;;;;;;;2.58;1.40;;;2.40;99.90;;;;;;5100643;28;20094;-79
2021/11/23 19:57:42;;;;;;;2.47;1.50;;;2.40;99.90;;;;;;5066674;28;20095;-79
2021/11/23 20:00:10;;;;;;;1.83;1.70;;;2.50;99.90;;;;;;5057903;28;20029;-79
2021/11/23 20:02:40;;;;;;;3.25;1.75;;;2.40;99.90;;;;;;5054574;28;20113;-79
2021/11/23 20:05:06;;;;;;;2.30;1.50;;;2.50;99.90;;;;;;5067003;28;20514;-78
2021/11/23 20:07:34;;;;;;;2.40;1.60;;;2.40;99.90;;;;;;5067383;28;20082;-79
2021/11/23 20:10:00;;;;;;;2.70;1.58;;;2.50;99.90;;;;;;5064234;28;20582;-78
2021/11/23 20:12:26;;;;;;;2.90;1.75;;;2.50;99.90;;;;;;5067762;28;20127;-79
2021/11/23 20:14:53;;;;;;;2.00;1.60;;;2.50;99.90;;;;;;5068406;28;20029;-78
2021/11/23 20:17:20;;;;;;;2.90;1.90;;;2.50;99.90;;;;;;5059170;28;20085;-78
2021/11/23 20:19:46;;;;;;;2.45;1.67;;;2.60;99.90;;;;;;5059492;28;20059;-78
2021/11/23 20:22:13;;;;;;;1.95;1.60;;;2.60;99.90;;;;;;5067676;28;20526;-78
2021/11/23 20:24:39;;;;;;;1.83;1.48;;;2.60;99.90;;;;;;5064806;28;20043;-77
2021/11/23 20:27:09;;;;;;;3.20;1.83;;;2.60;99.90;;;;;;5053937;28;20402;-78
2021/11/23 20:29:35;;;;;;;1.95;1.63;;;2.60;99.90;;;;;;5063945;28;20120;-78
2021/11/23 20:32:03;;;;;;;2.13;1.40;;;2.60;99.90;;;;;;5065513;28;20039;-78
2021/11/23 20:34:30;;;;;;;1.52;1.42;;;2.60;99.90;;;;;;5065249;28;20076;-78
2021/11/23 20:36:58;;;;;;;2.17;1.90;;;2.60;99.90;;;;;;5053909;28;20402;-78
2021/11/23 20:39:24;;;;;;;2.50;1.80;;;2.60;99.90;;;;;;5023314;28;20025;-78
2021/11/23 20:41:50;;;;;;;3.72;2.30;;;2.60;99.90;;;;;;5066122;28;20036;-78
2021/11/23 20:44:16;;;;;;;4.13;1.92;;;2.50;99.90;;;;;;5067122;28;20025;-78
2021/11/23 20:46:42;;;;;;;2.88;1.67;;;2.50;99.90;;;;;;5065500;28;20036;-78
2021/11/23 20:49:08;;;;;;;2.17;1.50;;;2.50;99.90;;;;;;5060038;28;20029;-79
2021/11/23 20:51:36;;;;;;;1.98;1.63;;;2.50;99.90;;;;;;5066921;28;20021;-79
2021/11/23 20:54:03;;;;;;;2.60;1.80;;;2.50;99.90;;;;;;5063123;28;20071;-78
2021/11/23 20:56:29;;;;;;;1.67;1.55;;;2.50;99.90;;;;;;5066515;28;20112;-78
2021/11/23 20:58:55;;;;;;;2.30;1.95;;;2.50;99.90;;;;;;5057285;28;20075;-78
2021/11/23 21:01:20;;;;;;;2.67;1.70;;;2.40;99.90;;;;;;5066520;28;20045;-78
2021/11/23 21:03:46;;;;;;;1.85;1.48;;;2.40;99.90;;;;;;5030556;28;20076;-78
2021/11/23 21:06:13;;;;;;;3.50;1.58;;;2.40;99.90;;;;;;5062572;28;20031;-78
2021/11/23 21:08:38;;;;;;;1.98;1.60;;;2.40;99.90;;;;;;5060243;28;20119;-77
2021/11/23 21:11:04;;;;;;;1.52;1.42;;;2.40;99.90;;;;;;5047592;28;20772;-78
2021/11/23 21:13:31;;;;;;;2.35;1.52;;;2.40;99.90;;;;;;5065982;28;20103;-78
2021/11/23 21:15:57;;;;;;;2.50;1.70;;;2.40;99.90;;;;;;5065625;28;20459;-78
2021/11/23 21:18:22;;;;;;;1.52;1.35;;;2.40;99.90;;;;;;5056971;28;20045;-77
2021/11/23 21:20:48;;;;;;;2.33;1.95;;;2.40;99.90;;;;;;5063829;28;20111;-78
2021/11/23 21:23:14;;;;;;;2.58;1.90;;;2.40;99.90;;;;;;5066740;28;20487;-78
2021/11/23 21:25:40;;;;;;;2.47;1.58;;;2.40;99.90;;;;;;5064330;28;20694;-78
2021/11/23 21:28:06;;;;;;;2.03;1.52;;;2.30;99.90;;;;;;5063836;28;20443;-78
2021/11/23 21:30:32;;;;;;;2.97;1.90;;;2.40;99.90;;;;;;5047069;28;20040;-78
2021/11/23 21:32:58;;;;;;;2.58;1.73;;;2.40;99.90;;;;;;5060632;28;20505;-77
2021/11/23 21:35:23;;;;;;;5.30;1.90;;;2.40;99.90;;;;;;5065016;28;20039;-78
2021/11/23 21:37:50;;;;;;;3.35;1.80;;;2.40;99.90;;;;;;5063146;28;20029;-78
2021/11/23 21:40:19;;;;;;;2.85;1.70;;;2.40;99.90;;;;;;5063990;28;20025;-77
2021/11/23 21:45:26;;;;;;;1.95;1.70;;;2.40;99.90;;;;;;5062656;28;20411;-78
2021/11/23 21:47:53;;;;;;;2.05;1.65;;;2.40;99.90;;;;;;5064344;28;20093;-78
2021/11/23 21:50:20;;;;;;;1.95;1.70;;;2.40;99.90;;;;;;5091873;28;20482;-78
2021/11/23 21:52:47;;;;;;;2.28;1.85;;;2.40;99.90;;;;;;5058804;28;20032;-77
2021/11/23 21:55:14;;;;;;;2.63;1.90;;;2.40;99.90;;;;;;5065207;28;20098;-78
2021/11/23 21:57:42;;;;;;;1.77;1.33;;;2.40;99.90;;;;;;5063838;28;20036;-78
2021/11/23 22:00:09;;;;;;;2.80;1.85;;;2.40;99.90;;;;;;5096299;28;20387;-78
2021/11/23 22:02:37;;;;;;;3.80;2.50;;;2.40;99.90;;;;;;5061299;28;20028;-78